Barry, Texas
Current Conditions -  °F | °C
As of 3:53 AM on Tuesday 21 Oct 2014 (Local Time) from KCRS Reporting Station
Haze Haze  
Wind Chill: 16°   Ceiling: Unl
Heat Index: 16°   Visibility: 6mi
Dew Point: 14°   Wind: 5mph
Humidity: 93%   Direction: 80°E
Pressure: 30.04"   Gusts: NA
Location:  32.1°N, 96.64°W
Report Text: KCRS 210853Z AUTO 08004KT 6SM BR CLR 16/14 A3004 RMK AO2 SLP169 T01560144 58002
Loading
Personal Weather Stations






























Interactive Weather Map
Tropical Storm Tracking
New forecast layout! Learn more

10-Day Weather Forecast

Advertisements
Track Severe Weather on mobile